createdAt,value
2022-07-27T00:00:47.245Z,16.00
2022-07-27T00:03:13.824Z,15.92
2022-07-27T00:05:40.447Z,16.02
2022-07-27T00:08:07.239Z,16.02
2022-07-27T00:10:34.733Z,16.00
2022-07-27T00:13:01.269Z,15.96
2022-07-27T00:15:28.057Z,16.06
2022-07-27T00:17:55.444Z,16.09
2022-07-27T00:20:22.936Z,16.00
2022-07-27T00:22:54.843Z,16.05
2022-07-27T00:25:22.796Z,16.10
2022-07-27T00:27:49.427Z,16.08
2022-07-27T00:30:16.407Z,16.10
2022-07-27T00:32:42.898Z,16.12
2022-07-27T00:35:09.817Z,16.14
2022-07-27T00:37:36.352Z,16.14
2022-07-27T00:40:03.820Z,16.13
2022-07-27T00:42:31.282Z,16.15
2022-07-27T00:44:58.103Z,16.15
2022-07-27T00:47:25.309Z,16.13
2022-07-27T00:49:51.819Z,16.15
2022-07-27T00:52:18.798Z,16.19
2022-07-27T00:54:45.675Z,16.19
2022-07-27T00:57:13.151Z,16.12
2022-07-27T00:59:39.934Z,16.16
2022-07-27T01:02:11.344Z,16.18
2022-07-27T01:04:39.421Z,16.15
2022-07-27T01:07:07.348Z,16.14
2022-07-27T01:09:53.341Z,16.13
2022-07-27T01:12:23.271Z,16.15
2022-07-27T01:14:51.020Z,16.16
2022-07-27T01:17:18.082Z,16.22
2022-07-27T01:19:45.035Z,16.20
2022-07-27T01:22:11.732Z,16.13
2022-07-27T01:24:38.851Z,16.12
2022-07-27T01:27:06.344Z,16.07
2022-07-27T01:29:34.035Z,16.08
2022-07-27T01:32:02.004Z,16.01
2022-07-27T01:34:28.882Z,16.01
2022-07-27T01:36:55.831Z,15.99
2022-07-27T01:39:22.310Z,15.92
2022-07-27T01:41:49.156Z,15.99
2022-07-27T01:44:15.743Z,16.02
2022-07-27T01:46:42.375Z,15.95
2022-07-27T01:49:09.772Z,15.86
2022-07-27T01:51:36.486Z,15.85
2022-07-27T01:54:03.770Z,15.88
2022-07-27T01:56:30.395Z,15.84
2022-07-27T01:58:56.975Z,15.85
2022-07-27T02:01:23.565Z,15.79
2022-07-27T02:03:50.247Z,15.76
2022-07-27T02:06:16.716Z,15.75
2022-07-27T02:08:43.161Z,15.67
2022-07-27T02:11:28.174Z,15.62
2022-07-27T02:13:54.713Z,15.58
2022-07-27T02:16:21.251Z,15.56
2022-07-27T02:18:51.124Z,15.47
2022-07-27T02:21:17.807Z,15.48
2022-07-27T02:23:45.480Z,15.58
2022-07-27T02:26:12.050Z,15.51
2022-07-27T02:28:39.342Z,15.55
2022-07-27T02:31:05.973Z,15.57
2022-07-27T02:33:32.970Z,15.59
2022-07-27T02:35:59.598Z,15.62
2022-07-27T02:38:26.214Z,15.67
2022-07-27T02:40:53.004Z,15.65
2022-07-27T02:43:19.531Z,15.60
2022-07-27T02:45:46.512Z,15.54
2022-07-27T02:48:13.867Z,15.51
2022-07-27T02:50:40.372Z,15.44
2022-07-27T02:53:06.873Z,15.52
2022-07-27T02:55:33.457Z,15.48
2022-07-27T02:58:00.116Z,15.46
2022-07-27T03:00:26.738Z,15.45
2022-07-27T03:02:53.377Z,15.34
2022-07-27T03:05:19.868Z,15.29
2022-07-27T03:07:46.486Z,15.29
2022-07-27T03:10:13.073Z,15.25
2022-07-27T03:12:39.591Z,15.22
2022-07-27T03:15:06.612Z,15.22
2022-07-27T03:17:33.322Z,15.20
2022-07-27T03:19:59.905Z,15.25
2022-07-27T03:22:30.575Z,15.21
2022-07-27T03:24:57.388Z,15.28
2022-07-27T03:27:23.863Z,15.36
2022-07-27T03:29:50.431Z,15.43
2022-07-27T03:32:17.297Z,15.29
2022-07-27T03:34:43.966Z,15.41
2022-07-27T03:37:10.614Z,15.48
2022-07-27T03:39:37.369Z,15.47
2022-07-27T03:42:06.756Z,15.36
2022-07-27T03:44:33.587Z,15.37
2022-07-27T03:47:00.663Z,15.37
2022-07-27T03:49:27.325Z,15.43
2022-07-27T03:51:53.972Z,15.48
2022-07-27T03:54:20.572Z,15.48
2022-07-27T03:56:47.203Z,15.34
2022-07-27T03:59:14.484Z,15.37
2022-07-27T04:01:41.691Z,15.38
2022-07-27T04:04:08.313Z,15.47
2022-07-27T04:06:35.080Z,15.33
2022-07-27T04:09:13.745Z,15.24
2022-07-27T04:11:50.629Z,15.26
2022-07-27T04:14:18.326Z,15.22
2022-07-27T04:16:45.025Z,15.29
2022-07-27T04:19:11.836Z,15.44
2022-07-27T04:21:38.993Z,15.43
2022-07-27T04:24:07.061Z,15.56
2022-07-27T04:26:33.715Z,15.32
2022-07-27T04:29:00.933Z,15.35
2022-07-27T04:31:27.617Z,15.33
2022-07-27T04:33:54.167Z,15.36
2022-07-27T04:36:20.976Z,15.29
2022-07-27T04:38:47.590Z,15.36
2022-07-27T04:41:14.199Z,15.28
2022-07-27T04:43:40.809Z,15.25
2022-07-27T04:46:10.613Z,15.39
2022-07-27T04:48:39.794Z,15.37
2022-07-27T04:51:08.258Z,15.54
2022-07-27T04:53:36.802Z,15.58
2022-07-27T04:56:20.080Z,15.65
2022-07-27T04:58:46.630Z,15.67
2022-07-27T05:01:13.192Z,15.80
2022-07-27T05:03:40.576Z,15.82
2022-07-27T05:06:07.330Z,15.91
2022-07-27T05:08:35.316Z,16.02
2022-07-27T05:11:02.625Z,16.06
2022-07-27T05:13:29.225Z,15.94
2022-07-27T05:15:56.137Z,15.96
2022-07-27T05:18:23.690Z,16.12
2022-07-27T05:20:50.477Z,16.13
2022-07-27T05:23:17.339Z,16.13
2022-07-27T05:25:44.224Z,16.11
2022-07-27T05:28:13.997Z,16.25
2022-07-27T05:30:40.720Z,16.36
2022-07-27T05:33:07.337Z,16.51
2022-07-27T05:35:33.825Z,16.40
2022-07-27T05:38:00.396Z,16.52
2022-07-27T05:40:27.244Z,16.69
2022-07-27T05:42:53.759Z,16.85
2022-07-27T05:45:20.448Z,16.92
2022-07-27T05:47:47.148Z,17.11
2022-07-27T05:50:14.198Z,17.89
2022-07-27T05:52:40.753Z,18.34
2022-07-27T05:55:07.931Z,19.25
2022-07-27T05:57:34.813Z,20.14
2022-07-27T06:00:01.612Z,20.96
2022-07-27T06:02:30.323Z,21.70
2022-07-27T06:04:57.341Z,22.49
2022-07-27T06:07:42.599Z,22.56
2022-07-27T06:10:09.626Z,23.04
2022-07-27T06:12:43.530Z,24.35
2022-07-27T06:15:11.222Z,25.14
2022-07-27T06:17:37.849Z,25.48
2022-07-27T06:20:05.770Z,25.52
2022-07-27T06:22:32.303Z,26.59
2022-07-27T06:24:59.381Z,27.85
2022-07-27T06:27:29.435Z,28.47
2022-07-27T06:29:56.213Z,27.42
2022-07-27T06:32:22.755Z,27.93
2022-07-27T06:34:49.553Z,28.91
2022-07-27T06:37:17.011Z,29.12
2022-07-27T06:39:46.601Z,29.62
2022-07-27T06:42:16.345Z,27.91
2022-07-27T06:44:42.823Z,26.94
2022-07-27T06:47:09.363Z,28.08
2022-07-27T06:49:35.976Z,28.11
2022-07-27T06:52:02.739Z,27.48
2022-07-27T06:54:29.253Z,28.34
2022-07-27T06:56:55.881Z,29.76
2022-07-27T06:59:22.489Z,30.60
2022-07-27T07:01:49.287Z,31.52
2022-07-27T07:04:16.247Z,31.54
2022-07-27T07:06:43.079Z,32.34
2022-07-27T07:09:09.760Z,31.91
2022-07-27T07:11:37.913Z,31.31
2022-07-27T07:14:04.867Z,31.23
2022-07-27T07:16:31.547Z,31.72
2022-07-27T07:18:58.238Z,31.84
2022-07-27T07:21:24.939Z,32.86
2022-07-27T07:23:51.749Z,32.97
2022-07-27T07:26:18.595Z,30.84
2022-07-27T07:28:45.261Z,30.98
2022-07-27T07:31:11.826Z,31.10
2022-07-27T07:33:38.541Z,30.75
2022-07-27T07:36:13.175Z,31.11
2022-07-27T07:38:41.294Z,31.02
2022-07-27T07:41:08.000Z,31.25
2022-07-27T07:43:36.636Z,29.80
2022-07-27T07:46:04.057Z,28.69
2022-07-27T07:48:30.870Z,27.58
2022-07-27T07:50:57.463Z,27.70
2022-07-27T07:53:24.265Z,26.95
2022-07-27T07:55:52.052Z,26.25
2022-07-27T07:58:19.010Z,24.91
2022-07-27T08:00:45.790Z,24.98
2022-07-27T08:03:12.363Z,24.45
2022-07-27T08:05:38.951Z,24.34
2022-07-27T08:08:05.969Z,24.44
2022-07-27T08:10:32.646Z,24.49
2022-07-27T08:12:59.200Z,24.11
2022-07-27T08:15:29.978Z,23.91
2022-07-27T08:18:03.011Z,24.43
2022-07-27T08:20:29.830Z,24.75
2022-07-27T08:22:56.328Z,24.02
2022-07-27T08:25:23.239Z,24.28
2022-07-27T08:27:49.986Z,24.21
2022-07-27T08:30:16.897Z,23.59
2022-07-27T08:32:53.178Z,23.29
2022-07-27T08:35:20.343Z,23.53
2022-07-27T08:37:47.179Z,23.45
2022-07-27T08:43:02.841Z,22.55
2022-07-27T08:45:31.867Z,22.47
2022-07-27T08:47:58.417Z,22.94
2022-07-27T08:50:25.862Z,22.67
2022-07-27T08:53:05.764Z,22.69
2022-07-27T08:55:33.993Z,22.56
2022-07-27T08:58:03.113Z,22.41
2022-07-27T09:00:30.788Z,22.12
2022-07-27T09:02:57.833Z,22.61
2022-07-27T09:05:24.703Z,22.81
2022-07-27T09:07:51.641Z,22.76
2022-07-27T09:10:35.655Z,22.39
2022-07-27T09:13:26.975Z,22.38
2022-07-27T09:16:20.908Z,22.30
2022-07-27T09:18:48.725Z,22.07
2022-07-27T09:21:21.709Z,22.14
2022-07-27T09:24:36.746Z,22.35
2022-07-27T09:27:05.643Z,22.70
2022-07-27T09:29:36.625Z,22.36
2022-07-27T09:32:14.700Z,22.50
2022-07-27T09:34:41.357Z,22.34
2022-07-27T09:37:09.439Z,22.26
2022-07-27T09:39:35.926Z,21.65
2022-07-27T09:42:03.840Z,21.56
2022-07-27T09:44:43.334Z,21.64
2022-07-27T09:47:27.457Z,22.13
2022-07-27T09:49:58.986Z,22.06
2022-07-27T09:52:28.593Z,22.24
2022-07-27T09:55:02.956Z,22.44
2022-07-27T09:57:29.594Z,21.73
2022-07-27T10:00:22.378Z,22.10
2022-07-27T10:02:50.471Z,22.54
2022-07-27T10:05:22.668Z,22.41
2022-07-27T10:07:53.182Z,22.13
2022-07-27T10:10:21.437Z,22.19
2022-07-27T10:12:53.959Z,22.41
2022-07-27T10:15:21.560Z,22.56
2022-07-27T10:17:55.605Z,22.62
2022-07-27T10:20:22.351Z,22.61
2022-07-27T10:22:58.680Z,22.55
2022-07-27T10:25:27.146Z,22.99
2022-07-27T10:28:13.501Z,22.75
2022-07-27T10:30:40.345Z,22.36
2022-07-27T10:33:16.621Z,22.20
2022-07-27T10:35:43.393Z,21.90
2022-07-27T10:38:11.204Z,21.96
2022-07-27T10:40:39.266Z,22.36
2022-07-27T10:43:07.044Z,22.47
2022-07-27T10:45:50.211Z,22.07
2022-07-27T10:48:47.712Z,22.18
2022-07-27T10:51:17.139Z,22.01
2022-07-27T10:56:45.947Z,22.42
2022-07-27T10:59:12.849Z,22.61
2022-07-27T11:01:58.579Z,22.46
2022-07-27T11:04:26.141Z,21.97
2022-07-27T11:10:03.670Z,22.77
2022-07-27T11:12:31.479Z,22.62
2022-07-27T11:14:58.504Z,22.40
2022-07-27T11:20:15.955Z,22.55
2022-07-27T11:25:29.273Z,22.22
2022-07-27T11:27:55.893Z,22.09
2022-07-27T11:30:24.377Z,22.24
2022-07-27T11:32:52.809Z,22.11
2022-07-27T11:35:20.345Z,22.12
2022-07-27T11:38:06.124Z,22.38
2022-07-27T11:40:57.055Z,22.28
2022-07-27T11:43:37.216Z,22.51
2022-07-27T11:46:28.247Z,22.70
2022-07-27T11:49:17.776Z,22.30
2022-07-27T11:51:50.075Z,22.14
2022-07-27T11:54:23.454Z,22.10
2022-07-27T11:56:55.248Z,22.25
2022-07-27T11:59:23.748Z,22.10
2022-07-27T12:01:53.509Z,21.91
2022-07-27T12:04:40.175Z,21.99
2022-07-27T12:07:08.398Z,22.16
2022-07-27T12:09:39.135Z,22.24
2022-07-27T12:12:16.632Z,22.16
2022-07-27T12:14:46.275Z,22.14
2022-07-27T12:17:26.969Z,22.40
2022-07-27T12:20:10.765Z,22.22
2022-07-27T12:22:39.874Z,21.97
2022-07-27T12:25:12.607Z,22.12
2022-07-27T12:28:02.841Z,22.16
2022-07-27T12:30:31.309Z,22.71
2022-07-27T12:33:00.345Z,22.68
2022-07-27T12:35:37.294Z,22.31
2022-07-27T12:38:09.541Z,22.55
2022-07-27T12:40:44.569Z,22.48
2022-07-27T12:43:15.685Z,22.45
2022-07-27T12:45:42.297Z,22.45
2022-07-27T12:48:11.980Z,22.93
2022-07-27T12:50:40.665Z,22.87
2022-07-27T12:53:08.027Z,22.61
2022-07-27T12:55:34.952Z,22.45
2022-07-27T12:58:01.505Z,22.29
2022-07-27T13:00:33.614Z,22.27
2022-07-27T13:03:02.033Z,22.24
2022-07-27T13:05:29.000Z,22.52
2022-07-27T13:07:55.571Z,22.88
2022-07-27T13:10:22.644Z,23.10
2022-07-27T13:12:49.641Z,23.05
2022-07-27T13:15:16.791Z,23.12
2022-07-27T13:17:44.194Z,22.70
2022-07-27T13:20:12.762Z,22.83
2022-07-27T13:22:40.829Z,22.76
2022-07-27T13:25:16.438Z,22.76
2022-07-27T13:27:48.004Z,22.84
2022-07-27T13:30:16.176Z,22.63
2022-07-27T13:32:43.173Z,22.69
2022-07-27T13:35:12.494Z,22.63
2022-07-27T13:37:40.085Z,22.84
2022-07-27T13:40:07.936Z,22.71
2022-07-27T13:42:34.462Z,22.71
2022-07-27T13:45:09.118Z,22.73
2022-07-27T13:47:38.035Z,23.10
2022-07-27T13:50:05.453Z,23.41
2022-07-27T13:52:31.935Z,23.52
2022-07-27T13:54:58.440Z,23.59
2022-07-27T13:57:25.154Z,23.19
2022-07-27T13:59:51.666Z,23.37
2022-07-27T14:02:22.842Z,23.07
2022-07-27T14:04:50.310Z,22.99
2022-07-27T14:07:17.481Z,23.32
2022-07-27T14:10:03.021Z,23.12
2022-07-27T14:12:29.540Z,23.14
2022-07-27T14:14:56.302Z,23.24
2022-07-27T14:17:23.193Z,23.18
2022-07-27T14:19:49.725Z,23.02
2022-07-27T14:22:16.381Z,23.10
2022-07-27T14:24:42.947Z,23.17
2022-07-27T14:27:09.447Z,23.11
2022-07-27T14:29:36.078Z,23.04
2022-07-27T14:32:02.903Z,22.99
2022-07-27T14:34:29.593Z,22.93
2022-07-27T14:36:56.256Z,23.14
2022-07-27T14:39:23.271Z,22.80
2022-07-27T14:41:49.828Z,22.69
2022-07-27T14:44:18.627Z,22.59
2022-07-27T14:46:46.484Z,22.34
2022-07-27T14:49:14.820Z,22.44
2022-07-27T14:51:41.750Z,22.42
2022-07-27T14:54:08.539Z,22.65
2022-07-27T14:56:36.621Z,23.02
2022-07-27T14:59:04.145Z,22.97
2022-07-27T15:01:30.919Z,22.80
2022-07-27T15:03:57.567Z,22.62
2022-07-27T15:06:24.183Z,22.42
2022-07-27T15:08:50.718Z,22.38
2022-07-27T15:11:17.251Z,22.46
2022-07-27T15:13:43.748Z,22.55
2022-07-27T15:16:12.051Z,22.60
2022-07-27T15:18:39.208Z,22.64
2022-07-27T15:21:13.615Z,22.42
2022-07-27T15:23:44.456Z,22.47
2022-07-27T15:26:12.538Z,22.39
2022-07-27T15:28:40.056Z,22.42
2022-07-27T15:31:06.720Z,22.45
2022-07-27T15:33:33.476Z,22.49
2022-07-27T15:35:59.998Z,22.88
2022-07-27T15:38:26.640Z,23.33
2022-07-27T15:40:53.320Z,23.88
2022-07-27T15:43:20.345Z,23.38
2022-07-27T15:45:48.985Z,22.98
2022-07-27T15:48:17.186Z,22.54
2022-07-27T15:50:45.899Z,22.15
2022-07-27T15:53:13.261Z,22.08
2022-07-27T15:55:39.823Z,22.08
2022-07-27T15:58:06.881Z,22.04
2022-07-27T16:00:39.416Z,21.95
2022-07-27T16:03:07.567Z,21.86
2022-07-27T16:05:34.188Z,21.80
2022-07-27T16:08:00.840Z,21.99
2022-07-27T16:10:29.768Z,21.91
2022-07-27T16:12:56.974Z,22.01
2022-07-27T16:15:43.656Z,22.29
2022-07-27T16:18:10.564Z,22.34
2022-07-27T16:20:37.262Z,22.30
2022-07-27T16:23:17.696Z,22.34
2022-07-27T16:26:07.630Z,22.55
2022-07-27T16:28:40.819Z,22.83
2022-07-27T16:31:08.873Z,23.02
2022-07-27T16:33:35.579Z,22.90
2022-07-27T16:36:02.706Z,22.76
2022-07-27T16:38:29.488Z,22.54
2022-07-27T16:40:56.124Z,22.60
2022-07-27T16:43:23.233Z,22.34
2022-07-27T16:46:05.433Z,22.22
2022-07-27T16:48:38.336Z,22.13
2022-07-27T16:51:11.621Z,22.10
2022-07-27T16:53:40.150Z,22.04
2022-07-27T16:56:07.111Z,22.13
2022-07-27T16:58:34.285Z,21.97
2022-07-27T17:01:01.708Z,22.01
2022-07-27T17:03:28.287Z,21.87
2022-07-27T17:05:54.846Z,21.95
2022-07-27T17:08:22.008Z,21.88
2022-07-27T17:10:55.180Z,21.80
2022-07-27T17:13:23.161Z,21.80
2022-07-27T17:16:00.908Z,21.91
2022-07-27T17:18:27.847Z,21.73
2022-07-27T17:20:54.428Z,21.50
2022-07-27T17:23:21.139Z,21.39
2022-07-27T17:25:47.772Z,21.32
2022-07-27T17:28:14.282Z,21.19
2022-07-27T17:30:40.741Z,21.08
2022-07-27T17:33:07.511Z,21.02
2022-07-27T17:35:35.264Z,20.96
2022-07-27T17:38:06.887Z,20.89
2022-07-27T17:40:34.659Z,20.82
2022-07-27T17:43:01.181Z,20.71
2022-07-27T17:45:27.779Z,20.72
2022-07-27T17:47:55.082Z,20.63
2022-07-27T17:50:21.712Z,20.49
2022-07-27T17:52:48.218Z,20.49
2022-07-27T17:55:14.913Z,20.44
2022-07-27T17:57:41.557Z,20.46
2022-07-27T18:00:10.619Z,20.48
2022-07-27T18:02:37.370Z,20.50
2022-07-27T18:05:07.788Z,20.51
2022-07-27T18:07:39.164Z,20.48
2022-07-27T18:10:08.102Z,20.41
2022-07-27T18:12:35.594Z,20.40
2022-07-27T18:15:21.060Z,20.30
2022-07-27T18:17:47.648Z,20.20
2022-07-27T18:20:17.536Z,20.15
2022-07-27T18:22:44.302Z,20.12
2022-07-27T18:25:11.472Z,20.05
2022-07-27T18:27:38.624Z,19.96
2022-07-27T18:30:06.535Z,19.90
2022-07-27T18:32:33.533Z,19.77
2022-07-27T18:35:01.869Z,19.63
2022-07-27T18:37:28.703Z,19.49
2022-07-27T18:39:55.308Z,19.39
2022-07-27T18:42:21.925Z,19.33
2022-07-27T18:44:48.886Z,19.21
2022-07-27T18:47:15.556Z,19.13
2022-07-27T18:49:42.178Z,19.14
2022-07-27T18:52:08.922Z,19.05
2022-07-27T18:54:35.848Z,18.91
2022-07-27T18:57:02.963Z,18.79
2022-07-27T18:59:30.307Z,18.74
2022-07-27T19:01:57.747Z,18.69
2022-07-27T19:04:24.661Z,18.56
2022-07-27T19:06:51.603Z,18.46
2022-07-27T19:09:18.302Z,18.43
2022-07-27T19:11:44.976Z,18.37
2022-07-27T19:14:11.608Z,18.27
2022-07-27T19:16:38.488Z,18.20
2022-07-27T19:19:07.752Z,18.12
2022-07-27T19:21:38.304Z,18.12
2022-07-27T19:24:05.372Z,18.10
2022-07-27T19:26:33.654Z,18.05
2022-07-27T19:29:01.952Z,18.03
2022-07-27T19:31:28.938Z,18.04
2022-07-27T19:33:56.143Z,17.96
2022-07-27T19:36:23.854Z,17.92
2022-07-27T19:38:50.864Z,17.86
2022-07-27T19:41:17.751Z,17.78
2022-07-27T19:43:44.519Z,17.68
2022-07-27T19:46:11.190Z,17.64
2022-07-27T19:48:37.935Z,17.64
2022-07-27T19:51:06.976Z,17.46
2022-07-27T19:53:35.721Z,17.29
2022-07-27T19:56:05.037Z,17.25
2022-07-27T19:58:32.050Z,17.16
2022-07-27T20:00:58.788Z,17.18
2022-07-27T20:03:25.556Z,17.21
2022-07-27T20:05:52.529Z,17.15
2022-07-27T20:08:19.294Z,17.14
2022-07-27T20:10:47.559Z,17.17
2022-07-27T20:13:17.042Z,17.14
2022-07-27T20:15:43.662Z,17.02
2022-07-27T20:18:10.152Z,16.94
2022-07-27T20:20:36.759Z,16.83
2022-07-27T20:23:06.200Z,16.86
2022-07-27T20:25:32.818Z,16.82
2022-07-27T20:27:59.892Z,16.84
2022-07-27T20:30:26.707Z,16.68
2022-07-27T20:32:53.206Z,16.63
2022-07-27T20:35:19.942Z,16.61
2022-07-27T20:37:47.473Z,16.60
2022-07-27T20:40:14.472Z,16.61
2022-07-27T20:42:41.913Z,16.55
2022-07-27T20:45:11.117Z,16.46
2022-07-27T20:47:40.554Z,16.52
2022-07-27T20:50:11.729Z,16.38
2022-07-27T20:52:39.311Z,16.48
2022-07-27T20:55:07.223Z,16.48
2022-07-27T20:57:33.805Z,16.36
2022-07-27T21:00:00.370Z,16.30
2022-07-27T21:02:27.291Z,16.29
2022-07-27T21:04:54.969Z,16.26
2022-07-27T21:07:21.691Z,16.22
2022-07-27T21:09:48.366Z,16.29
2022-07-27T21:12:15.671Z,16.25
2022-07-27T21:14:42.789Z,16.18
2022-07-27T21:17:09.402Z,16.08
2022-07-27T21:19:36.067Z,16.12
2022-07-27T21:22:02.706Z,15.94
2022-07-27T21:24:29.887Z,15.92
2022-07-27T21:27:00.934Z,15.86
2022-07-27T21:29:31.713Z,15.84
2022-07-27T21:31:58.761Z,15.82
2022-07-27T21:34:25.335Z,15.80
2022-07-27T21:36:51.812Z,15.74
2022-07-27T21:39:18.928Z,15.82
2022-07-27T21:41:45.611Z,15.78
2022-07-27T21:44:12.281Z,15.66
2022-07-27T21:46:39.185Z,15.62
2022-07-27T21:49:05.758Z,15.59
2022-07-27T21:51:32.308Z,15.67
2022-07-27T21:53:59.207Z,15.66
2022-07-27T21:56:25.679Z,15.60
2022-07-27T21:58:52.184Z,15.60
2022-07-27T22:01:19.236Z,15.51
2022-07-27T22:03:45.993Z,15.54
2022-07-27T22:06:12.721Z,15.46
2022-07-27T22:08:39.705Z,15.53
2022-07-27T22:11:06.696Z,15.45
2022-07-27T22:13:33.726Z,15.40
2022-07-27T22:16:01.003Z,15.42
2022-07-27T22:18:28.766Z,15.33
2022-07-27T22:20:55.932Z,15.28
2022-07-27T22:23:22.724Z,15.17
2022-07-27T22:25:49.536Z,15.07
2022-07-27T22:28:16.009Z,15.09
2022-07-27T22:30:42.689Z,15.01
2022-07-27T22:33:09.226Z,14.90
2022-07-27T22:35:35.715Z,14.89
2022-07-27T22:38:02.701Z,14.93
2022-07-27T22:40:29.308Z,14.88
2022-07-27T22:42:55.794Z,14.80
2022-07-27T22:45:22.727Z,14.80
2022-07-27T22:47:49.314Z,14.73
2022-07-27T22:50:18.238Z,14.61
2022-07-27T22:52:45.152Z,14.64
2022-07-27T22:55:11.721Z,14.63
2022-07-27T22:57:38.202Z,14.63
2022-07-27T23:00:06.340Z,14.48
2022-07-27T23:02:34.185Z,14.42
2022-07-27T23:05:00.742Z,14.35
2022-07-27T23:07:27.662Z,14.26
2022-07-27T23:09:54.223Z,14.21
2022-07-27T23:12:23.768Z,14.23
2022-07-27T23:14:50.510Z,14.07
2022-07-27T23:17:17.120Z,14.05
2022-07-27T23:19:43.638Z,14.03
2022-07-27T23:22:11.545Z,13.93
2022-07-27T23:24:41.014Z,13.93
2022-07-27T23:27:08.082Z,13.90
2022-07-27T23:29:34.698Z,13.86
2022-07-27T23:32:02.876Z,13.85
2022-07-27T23:34:29.522Z,13.82
2022-07-27T23:36:56.554Z,13.78
2022-07-27T23:39:23.069Z,13.81
2022-07-27T23:41:50.323Z,13.71
2022-07-27T23:44:17.571Z,13.71
2022-07-27T23:46:44.293Z,13.74
2022-07-27T23:49:10.990Z,13.65
2022-07-27T23:51:37.689Z,13.56
2022-07-27T23:54:04.474Z,13.47
2022-07-27T23:56:30.954Z,13.51
2022-07-27T23:58:57.630Z,13.45
